»·PEaware :: N4122T KSBD-KCMA

N4122T :: KSBD-KCMA

FLIGHT INFORMATION

Flight Status: Arrived
Operator: Privately registered:
United States
More flights under this callsign
Pilot: Ulli W. (2180)
Aircraft: CESSNA 172 SKYHAWK
(C172)
More flights by this aircraft type
Origin: KSBD San Bernardino Intl
United States
Destination: KCMA Camarillo
United States
More flights between these airports :: More routes between these airports
Route: PDZ V186 FIM
File this flight plan on PilotEdge
Remarks:
Altitude:
(Current/Filed)
0ft
Speed:
(Current/Filed)
0kts
Departed: 26-Oct-19 07:42 AM
Arrived: 26-Oct-19 08:29 AM
Distance/Time
Traveled:
92nm/0:47
Distance/Time
To Go:
Arrived

Flight Plot

Page will automatically refresh every two minutes.


Map Options




Map Legend


Flown Route
Filed Route
Departure Airport
Arrival Airport
Navaid (VOR, NDB)
Fix

Horizontal Profiles

Position Reports

Time Latitude Longitude Heading Altitude Ground
Speed
26-Oct-19 07:29 34.096034 -117.244286 186 1161ft 0kts
26-Oct-19 07:30 34.096034 -117.244286 186 1161ft 0kts
26-Oct-19 07:31 34.096034 -117.244286 186 1161ft 0kts
26-Oct-19 07:32 34.096034 -117.244286 186 1161ft 0kts
26-Oct-19 07:33 34.096034 -117.244286 186 1161ft 0kts
26-Oct-19 07:34 34.096034 -117.244286 186 1161ft 0kts
26-Oct-19 07:35 34.096034 -117.244286 186 1161ft 0kts
26-Oct-19 07:36 34.095452 -117.244500 199 1161ft 12kts
26-Oct-19 07:37 34.093270 -117.247940 252 1161ft 10kts
26-Oct-19 07:38 34.092492 -117.250575 245 1161ft 6kts
26-Oct-19 07:39 34.091652 -117.250789 159 1161ft 0kts
26-Oct-19 07:40 34.091650 -117.250788 159 1161ft 1kts
26-Oct-19 07:41 34.094370 -117.238837 66 1310ft 92kts
26-Oct-19 07:42 34.086674 -117.214032 185 2170ft 100kts
26-Oct-19 07:43 34.069292 -117.238204 238 3064ft 97kts
26-Oct-19 07:44 34.055019 -117.265209 240 3962ft 93kts
26-Oct-19 07:45 34.041455 -117.291567 241 4731ft 98kts
26-Oct-19 07:46 34.026283 -117.321106 241 5331ft 106kts
26-Oct-19 07:47 34.010475 -117.351712 242 5925ft 108kts
26-Oct-19 07:48 33.992651 -117.386386 241 6000ft 131kts
26-Oct-19 07:49 33.973070 -117.424232 241 5997ft 133kts
26-Oct-19 07:50 33.944112 -117.480161 241 5996ft 133kts
26-Oct-19 07:51 33.922411 -117.522034 242 5996ft 132kts
26-Oct-19 07:52 33.931656 -117.571010 293 5995ft 124kts
26-Oct-19 07:53 33.954931 -117.643130 294 5991ft 124kts
26-Oct-19 07:54 33.971414 -117.694013 293 5985ft 123kts
26-Oct-19 07:55 33.986202 -117.739768 293 5982ft 127kts
26-Oct-19 07:56 34.005568 -117.799851 293 5980ft 127kts
26-Oct-19 07:57 34.024156 -117.857739 293 5980ft 127kts
26-Oct-19 07:58 34.044474 -117.921072 293 5977ft 127kts
26-Oct-19 07:59 34.061771 -117.974970 293 5971ft 127kts
26-Oct-19 08:00 34.074571 -118.014929 293 5965ft 127kts
26-Oct-19 08:01 34.087319 -118.054778 293 5959ft 127kts
26-Oct-19 08:02 34.100008 -118.094494 293 5955ft 126kts
26-Oct-19 08:03 34.112692 -118.134235 293 5961ft 126kts
26-Oct-19 08:04 34.117454 -118.175563 264 5964ft 129kts
26-Oct-19 08:05 34.111883 -118.218399 264 5973ft 129kts
26-Oct-19 08:06 34.105968 -118.261765 264 5978ft 130kts
26-Oct-19 08:07 34.099977 -118.305285 264 5980ft 131kts
26-Oct-19 08:08 34.093914 -118.348719 264 5980ft 131kts
26-Oct-19 08:09 34.089747 -118.392928 274 5831ft 138kts
26-Oct-19 08:10 34.096178 -118.440166 285 5128ft 144kts
26-Oct-19 08:11 34.104463 -118.487729 285 4431ft 143kts
26-Oct-19 08:12 34.116648 -118.532684 302 3924ft 131kts
26-Oct-19 08:13 34.134018 -118.569656 302 3974ft 125kts
26-Oct-19 08:14 34.151345 -118.606531 302 3973ft 125kts
26-Oct-19 08:15 34.168548 -118.643095 302 3973ft 124kts
26-Oct-19 08:16 34.185466 -118.679186 301 3971ft 124kts
26-Oct-19 08:17 34.197986 -118.719624 289 3711ft 136kts
26-Oct-19 08:18 34.208591 -118.762299 289 3565ft 127kts
26-Oct-19 08:19 34.218393 -118.803217 289 3561ft 125kts
26-Oct-19 08:20 34.228092 -118.844434 289 3440ft 130kts
26-Oct-19 08:21 34.236648 -118.885163 278 3170ft 109kts
26-Oct-19 08:22 34.236498 -118.919455 270 2712ft 98kts
26-Oct-19 08:23 34.231795 -118.952074 259 2214ft 99kts
26-Oct-19 08:24 34.224515 -118.984462 257 1713ft 99kts
26-Oct-19 08:25 34.217343 -119.015958 257 1170ft 93kts
26-Oct-19 08:26 34.212505 -119.045119 273 645ft 79kts
26-Oct-19 08:27 34.213412 -119.070419 273 361ft 72kts
26-Oct-19 08:29 34.213706 -119.088547 269 81ft 19kts
26-Oct-19 08:30 34.211300 -119.089697 175 81ft 19kts
26-Oct-19 08:31 34.210518 -119.089849 0 81ft 0kts
26-Oct-19 08:32 34.210518 -119.089849 0 81ft 0kts

Navigation Log

Ident Type
Flight plan parsing failed, navigation log unavailable